Time;durP1;ratioP1;P1;durP2;ratioP2;P2;SDS_P1;SDS_P2;PMS_P1;PMS_P2;Temp;Humidity;BMP_temperature;BMP_pressure;BME280_temperature;BME280_humidity;BME280_pressure;Samples;Min_cycle;Max_cycle;Signal;HPM_P1;HPM_P2
2021/07/18 00:00:21;;;;;;;;;5.00;5.00;;;;;21.63;63.12;102197.22;5102280;27;45530;-78
2021/07/18 00:02:47;;;;;;;;;8.25;7.50;;;;;21.64;63.76;102191.78;5101831;27;46260;-79
2021/07/18 00:05:12;;;;;;;;;8.25;7.00;;;;;21.63;64.01;102186.53;5102667;27;45423;-81
2021/07/18 00:07:38;;;;;;;;;7.00;6.00;;;;;21.62;63.52;102198.16;5102350;27;45233;-82
2021/07/18 00:10:05;;;;;;;;;6.00;6.00;;;;;21.57;63.88;102191.28;5102562;27;45484;-81
2021/07/18 00:12:30;;;;;;;;;7.00;6.00;;;;;21.55;63.88;102193.19;5101290;27;45683;-83
2021/07/18 00:14:56;;;;;;;;;7.75;6.50;;;;;21.52;63.69;102189.81;5102005;27;45273;-81
2021/07/18 00:17:22;;;;;;;;;6.50;6.50;;;;;21.51;63.93;102201.47;5102199;27;45487;-79
2021/07/18 00:19:47;;;;;;;;;8.00;6.75;;;;;21.48;63.74;102200.66;5101860;27;45282;-81
2021/07/18 00:22:12;;;;;;;;;7.75;6.75;;;;;21.48;64.23;102199.84;5101888;27;45590;-79
2021/07/18 00:24:38;;;;;;;;;7.50;7.00;;;;;21.45;64.38;102205.34;5100608;27;45682;-78
2021/07/18 00:27:04;;;;;;;;;9.25;6.75;;;;;21.44;63.94;102209.81;5102278;27;45344;-78
2021/07/18 00:29:29;;;;;;;;;8.75;7.75;;;;;21.41;64.16;102204.66;5102099;27;45348;-79
2021/07/18 00:31:54;;;;;;;;;7.50;7.50;;;;;21.39;64.28;102203.00;5101322;27;46630;-79
2021/07/18 00:34:21;;;;;;;;;5.75;5.75;;;;;21.37;64.07;102205.78;5102211;27;45209;-81
2021/07/18 00:36:46;;;;;;;;;7.25;6.50;;;;;21.34;64.42;102205.94;5102497;27;45160;-79
2021/07/18 00:39:11;;;;;;;;;6.25;5.25;;;;;21.31;64.22;102209.66;5102116;27;45297;-79
2021/07/18 00:41:37;;;;;;;;;9.00;7.50;;;;;21.29;64.30;102203.53;5101721;27;45248;-81
2021/07/18 00:44:03;;;;;;;;;7.75;7.00;;;;;21.28;64.54;102201.81;5101606;27;45389;-82
2021/07/18 00:46:28;;;;;;;;;10.00;7.00;;;;;21.23;64.14;102194.06;5101640;27;45257;-80
2021/07/18 00:48:53;;;;;;;;;9.00;7.75;;;;;21.21;64.53;102198.59;5096150;27;46254;-80
2021/07/18 00:51:19;;;;;;;;;7.00;7.00;;;;;21.20;64.78;102194.22;5100754;27;46283;-80
2021/07/18 00:53:45;;;;;;;;;7.25;7.00;;;;;21.17;64.49;102194.38;5100448;27;45322;-80
2021/07/18 00:56:11;;;;;;;;;9.00;7.25;;;;;21.17;64.78;102196.19;5101878;27;45352;-80
2021/07/18 00:58:37;;;;;;;;;8.50;6.50;;;;;21.12;64.74;102191.97;5101654;27;45248;-81
2021/07/18 01:01:03;;;;;;;;;6.00;5.25;;;;;21.10;64.92;102198.34;5100962;27;46056;-82
2021/07/18 01:03:29;;;;;;;;;7.25;6.00;;;;;21.10;64.89;102198.34;5100976;27;45372;-80
2021/07/18 01:05:55;;;;;;;;;6.25;6.25;;;;;21.08;64.82;102195.75;5101756;27;45503;-80
2021/07/18 01:08:21;;;;;;;;;8.50;7.25;;;;;21.07;64.84;102187.81;5101361;27;45443;-79
2021/07/18 01:10:46;;;;;;;;;11.00;9.25;;;;;21.02;64.85;102190.72;5099913;27;45710;-80
2021/07/18 01:13:12;;;;;;;;;10.00;8.00;;;;;21.04;65.11;102198.69;5100724;27;45226;-80
2021/07/18 01:15:38;;;;;;;;;11.00;8.00;;;;;21.04;64.59;102204.88;5101705;27;45221;-80
2021/07/18 01:18:04;;;;;;;;;10.00;10.00;;;;;21.04;64.94;102194.19;5100367;27;45152;-80
2021/07/18 01:20:30;;;;;;;;;7.00;6.25;;;;;21.02;65.00;102204.97;5101137;27;46452;-80
2021/07/18 01:22:56;;;;;;;;;11.50;9.00;;;;;21.01;64.71;102205.06;5099840;27;45312;-80
2021/07/18 01:25:21;;;;;;;;;11.50;9.50;;;;;20.98;65.11;102186.47;5100552;27;45431;-80
2021/07/18 01:27:48;;;;;;;;;8.00;8.00;;;;;20.96;65.03;102199.06;5100346;27;45561;-80
2021/07/18 01:30:14;;;;;;;;;8.75;8.00;;;;;20.93;64.84;102202.78;5099865;27;47321;-80
2021/07/18 01:32:42;;;;;;;;;8.75;8.75;;;;;20.89;65.24;102191.38;5100678;27;45430;-81
2021/07/18 01:35:08;;;;;;;;;8.50;6.00;;;;;20.88;64.90;102204.81;5098176;27;45202;-80
2021/07/18 01:37:33;;;;;;;;;6.75;6.25;;;;;20.87;65.03;102200.41;5100767;27;45511;-81
2021/07/18 01:39:59;;;;;;;;;10.50;8.50;;;;;20.83;64.94;102194.38;5087591;27;45237;-81
2021/07/18 01:42:26;;;;;;;;;7.75;6.50;;;;;20.79;65.20;102198.19;5100356;27;45368;-81
2021/07/18 01:44:51;;;;;;;;;9.00;9.00;;;;;20.78;65.19;102196.44;5100875;27;45319;-80
2021/07/18 01:47:17;;;;;;;;;10.75;8.75;;;;;20.77;64.91;102189.34;5108504;27;46364;-80
2021/07/18 01:49:43;;;;;;;;;8.50;8.00;;;;;20.76;65.30;102195.66;5100089;27;45319;-80
2021/07/18 01:52:08;;;;;;;;;8.25;6.25;;;;;20.73;65.04;102195.81;5101014;27;45388;-80
2021/07/18 01:54:34;;;;;;;;;7.50;7.00;;;;;20.69;65.17;102185.28;5101053;27;45389;-80
2021/07/18 01:57:17;;;;;;;;;8.25;7.25;;;;;20.68;65.17;102180.91;5100462;27;45298;-81
2021/07/18 01:59:43;;;;;;;;;9.25;8.75;;;;;20.64;65.04;102182.00;5099929;27;46401;-80
2021/07/18 02:02:09;;;;;;;;;8.25;6.75;;;;;20.64;65.45;102182.00;5104537;27;45336;-80
2021/07/18 02:04:35;;;;;;;;;9.00;7.00;;;;;20.61;65.62;102184.84;5107610;27;45330;-80
2021/07/18 02:07:03;;;;;;;;;9.75;8.00;;;;;20.57;65.46;102177.94;5100230;27;45671;-80
2021/07/18 02:09:28;;;;;;;;;6.00;5.50;;;;;20.55;65.54;102177.16;5089344;27;47667;-81
2021/07/18 02:11:53;;;;;;;;;11.25;7.50;;;;;20.54;65.55;102181.66;5100470;27;45313;-79
2021/07/18 02:14:19;;;;;;;;;13.00;9.00;;;;;20.53;65.56;102185.25;5100824;27;45510;-81
2021/07/18 02:16:44;;;;;;;;;11.75;9.00;;;;;20.52;65.72;102185.34;5100096;27;45167;-79
2021/07/18 02:19:10;;;;;;;;;11.25;7.00;;;;;20.49;65.90;102186.38;5099707;27;45558;-79
2021/07/18 02:21:38;;;;;;;;;12.00;9.25;;;;;20.48;65.75;102179.28;5115855;27;45333;-79
2021/07/18 02:24:04;;;;;;;;;12.75;8.75;;;;;20.45;65.94;102177.63;5100537;27;45395;-79
2021/07/18 02:26:30;;;;;;;;;10.00;9.50;;;;;20.40;65.94;102170.81;5099796;27;45493;-79
2021/07/18 02:28:59;;;;;;;;;10.25;5.25;;;;;20.43;65.82;102176.00;5100107;27;46314;-79
2021/07/18 02:31:25;;;;;;;;;8.25;8.00;;;;;20.43;65.91;102176.88;5099964;27;45398;-79
2021/07/18 02:33:50;;;;;;;;;8.50;7.00;;;;;20.43;66.00;102176.88;5100082;27;45397;-79
2021/07/18 02:36:16;;;;;;;;;8.00;8.00;;;;;20.40;65.54;102176.16;5113876;27;45464;-80
2021/07/18 02:38:41;;;;;;;;;8.75;8.25;;;;;20.38;66.13;102176.25;5103294;27;46303;-80
2021/07/18 02:41:07;;;;;;;;;9.25;8.50;;;;;20.37;66.09;102174.53;5103896;27;45348;-80
2021/07/18 02:43:32;;;;;;;;;9.00;7.50;;;;;20.34;66.00;102174.69;5090591;27;45269;-81
2021/07/18 02:45:58;;;;;;;;;9.75;6.75;;;;;20.34;66.15;102180.03;5102561;27;47402;-81
2021/07/18 02:48:23;;;;;;;;;7.75;7.75;;;;;20.33;66.10;102172.94;5102545;27;45352;-81
2021/07/18 02:50:48;;;;;;;;;8.50;5.00;;;;;20.33;66.17;102176.47;5103816;27;45302;-80
2021/07/18 06:53:21;;;;;;;;;8.00;6.50;;;;;20.48;66.83;102218.47;5647839;23;45497;-86
2021/07/18 06:55:46;;;;;;;;;4.75;4.25;;;;;20.49;66.64;102213.06;4881866;29;45524;-86
2021/07/18 06:58:11;;;;;;;;;5.00;5.00;;;;;20.54;66.82;102212.84;4883650;29;45242;-86
2021/07/18 07:00:37;;;;;;;;;6.75;4.75;;;;;20.58;67.12;102214.38;4881004;29;47003;-86
2021/07/18 07:03:02;;;;;;;;;6.50;5.25;;;;;20.63;66.87;102212.34;4882994;29;45218;-86
2021/07/18 07:05:28;;;;;;;;;6.00;4.25;;;;;20.65;66.17;102215.78;4884126;29;45353;-86
2021/07/18 07:07:53;;;;;;;;;7.25;5.75;;;;;20.68;66.37;102210.28;4881721;29;45233;-86
2021/07/18 07:10:21;;;;;;;;;6.50;4.00;;;;;20.74;66.35;102217.09;4883001;29;45346;-86
2021/07/18 07:12:48;;;;;;;;;7.00;5.50;;;;;20.77;66.42;102218.75;4883209;29;45886;-87
2021/07/18 07:15:14;;;;;;;;;6.25;4.25;;;;;20.78;66.38;102207.13;4883972;29;45335;-86
2021/07/18 07:17:39;;;;;;;;;8.00;7.00;;;;;20.84;66.03;102222.81;4882684;29;45322;-86
2021/07/18 07:20:07;;;;;;;;;8.00;6.25;;;;;20.90;66.33;102221.63;4883692;29;45510;-86
2021/07/18 07:22:35;;;;;;;;;6.25;5.00;;;;;20.94;66.34;102223.19;4883391;29;45203;-87
2021/07/18 07:25:03;;;;;;;;;5.75;5.75;;;;;20.95;65.48;102216.03;4886328;29;45307;-87
2021/07/18 07:27:28;;;;;;;;;6.75;6.75;;;;;20.99;65.95;102221.13;4880478;29;45508;-86
2021/07/18 07:29:54;;;;;;;;;5.25;5.25;;;;;21.02;65.86;102221.00;4885945;29;45633;-86
2021/07/18 07:32:19;;;;;;;;;6.25;6.25;;;;;21.05;66.05;102219.97;4886517;29;45250;-86
2021/07/18 07:34:44;;;;;;;;;5.75;5.75;;;;;21.10;65.90;102217.06;4894473;29;45225;-91
2021/07/18 07:37:10;;;;;;;;;5.00;5.00;;;;;21.15;65.85;102215.00;4890781;29;45388;-87
2021/07/18 07:39:35;;;;;;;;;6.50;5.50;;;;;21.16;65.78;102215.88;4885649;29;46264;-86
2021/07/18 07:42:00;;;;;;;;;4.50;3.25;;;;;21.21;65.29;102208.44;4878794;29;45359;-86
2021/07/18 07:44:26;;;;;;;;;8.00;6.50;;;;;21.27;65.74;102220.59;4886699;29;45236;-86
2021/07/18 07:46:51;;;;;;;;;6.00;5.25;;;;;21.29;65.48;102216.91;4884968;29;45246;-86
2021/07/18 07:49:16;;;;;;;;;6.25;4.00;;;;;21.38;65.09;102212.00;4877539;29;46494;-87
2021/07/18 07:51:42;;;;;;;;;4.50;4.50;;;;;21.44;65.17;102214.31;4876402;29;45263;-86
2021/07/18 07:54:07;;;;;;;;;6.25;6.25;;;;;21.47;65.00;102216.81;4885650;29;45201;-86
2021/07/18 07:56:33;;;;;;;;;6.50;5.00;;;;;21.52;64.19;102220.09;4885655;29;45452;-87
2021/07/18 07:58:58;;;;;;;;;5.25;3.00;;;;;21.57;64.50;102211.81;4886322;29;46539;-87
2021/07/18 08:01:24;;;;;;;;;6.00;5.00;;;;;21.64;64.63;102212.31;4885534;29;45760;-87
2021/07/18 08:03:51;;;;;;;;;4.00;4.00;;;;;21.70;64.63;102220.00;4885799;29;45356;-87
2021/07/18 08:06:17;;;;;;;;;3.75;3.00;;;;;21.77;64.23;102212.47;4874747;29;45489;-86
2021/07/18 08:08:42;;;;;;;;;5.00;3.75;;;;;21.84;63.70;102211.19;4894868;29;45373;-84
2021/07/18 08:11:08;;;;;;;;;5.75;4.00;;;;;21.88;63.29;102207.38;4884160;29;45543;-86
2021/07/18 08:13:34;;;;;;;;;2.50;2.50;;;;;21.94;63.69;102202.63;4884704;29;45526;-86
2021/07/18 08:15:59;;;;;;;;;3.25;3.25;;;;;21.98;63.00;102205.03;4885184;29;45577;-86
2021/07/18 08:18:25;;;;;;;;;5.00;5.00;;;;;22.03;63.11;102202.09;4873619;29;48077;-86
2021/07/18 08:20:51;;;;;;;;;5.75;4.25;;;;;22.08;62.92;102207.16;4893338;29;45522;-87
2021/07/18 08:23:16;;;;;;;;;1.75;1.75;;;;;22.11;61.98;102202.50;4885759;29;45330;-90
2021/07/18 08:25:42;;;;;;;;;4.25;3.00;;;;;22.16;62.60;102199.56;4884484;29;46889;-91
2021/07/18 08:28:07;;;;;;;;;3.00;3.00;;;;;22.21;61.79;102194.78;4903458;28;46803;-88
2021/07/18 08:30:33;;;;;;;;;4.25;3.50;;;;;22.26;61.97;102195.38;4885700;29;45369;-87
2021/07/18 08:32:58;;;;;;;;;4.00;4.00;;;;;22.29;61.82;102197.00;4900559;29;45308;-87
2021/07/18 08:35:23;;;;;;;;;3.25;3.25;;;;;22.31;61.26;102189.75;4885627;29;45359;-90
2021/07/18 08:37:49;;;;;;;;;4.25;3.50;;;;;22.36;61.98;102186.78;4891437;29;48243;-93
2021/07/18 08:40:15;;;;;;;;;3.00;3.00;;;;;22.40;61.52;102177.59;4884373;29;45266;-93
2021/07/18 08:42:40;;;;;;;;;4.25;3.75;;;;;22.47;60.41;102183.47;4884711;29;45506;-86
2021/07/18 08:45:07;;;;;;;;;3.50;3.25;;;;;22.54;60.80;102183.94;4885517;29;45401;-93
2021/07/18 08:47:33;;;;;;;;;3.00;2.50;;;;;22.57;60.40;102179.25;4876637;29;47614;-91
2021/07/18 08:49:59;;;;;;;;;2.25;2.25;;;;;22.63;60.11;102177.13;4900522;29;45455;-92
2021/07/18 08:52:25;;;;;;;;;3.75;3.00;;;;;22.69;59.72;102180.31;4896116;29;45329;-91
2021/07/18 08:54:51;;;;;;;;;2.00;1.75;;;;;22.75;59.41;102170.19;4899704;29;46552;-86
2021/07/18 08:57:19;;;;;;;;;4.00;4.00;;;;;22.80;59.68;102170.75;4883760;29;45464;-86
2021/07/18 08:59:45;;;;;;;;;6.75;4.00;;;;;22.85;59.05;102176.69;4885555;29;45493;-88
2021/07/18 09:02:11;;;;;;;;;3.00;2.00;;;;;22.90;58.16;102179.94;4885001;29;45232;-87
2021/07/18 09:04:36;;;;;;;;;2.25;2.25;;;;;22.96;58.52;102173.34;4898652;29;45888;-83
2021/07/18 09:07:07;;;;;;;;;1.50;1.50;;;;;23.00;58.47;102174.00;4883654;29;45574;-83
2021/07/18 09:09:33;;;;;;;;;4.00;2.00;;;;;23.06;58.79;102180.78;4884707;29;45512;-83
2021/07/18 09:12:05;;;;;;;;;1.00;1.00;;;;;23.11;57.84;102187.56;4884432;29;45315;-84
2021/07/18 09:14:32;;;;;;;;;2.00;2.00;;;;;23.17;57.30;102175.59;4883889;29;45927;-83
2021/07/18 09:16:57;;;;;;;;;3.00;3.00;;;;;23.24;57.54;102178.72;4885114;29;46172;-85
2021/07/18 09:19:31;;;;;;;;;2.75;1.75;;;;;23.30;56.72;102173.00;4884769;29;45286;-85
2021/07/18 09:21:57;;;;;;;;;2.00;2.00;;;;;23.35;56.78;102178.91;4885172;29;45317;-84
2021/07/18 09:24:27;;;;;;;;;2.25;1.50;;;;;23.41;56.60;102166.91;4899250;29;46266;-86
2021/07/18 09:27:26;;;;;;;;;6.00;3.25;;;;;23.46;56.81;102169.28;4884476;29;45441;-84
2021/07/18 09:30:06;;;;;;;;;4.00;4.00;;;;;23.47;56.50;102157.59;4871770;29;45213;-85
2021/07/18 09:32:34;;;;;;;;;4.25;2.75;;;;;23.44;55.81;102163.16;4885165;29;45324;-84
2021/07/18 09:35:08;;;;;;;;;3.50;2.00;;;;;23.46;56.43;102163.91;4885195;29;45299;-84
2021/07/18 09:37:40;;;;;;;;;4.00;2.00;;;;;23.46;56.39;102148.69;4884540;29;45421;-85
2021/07/18 09:40:18;;;;;;;;;2.75;2.75;;;;;23.52;56.70;102158.19;4883378;29;46449;-84
2021/07/18 09:42:51;;;;;;;;;4.00;3.00;;;;;23.59;56.47;102155.94;4883008;29;45525;-85
2021/07/18 09:45:22;;;;;;;;;1.75;1.75;;;;;23.66;56.43;102154.56;4884122;29;45589;-85
2021/07/18 09:47:54;;;;;;;;;2.75;2.75;;;;;23.76;55.10;102160.19;4884433;29;46674;-85
2021/07/18 09:50:21;;;;;;;;;3.25;2.25;;;;;23.83;56.06;102153.44;4873231;29;45604;-84
2021/07/18 09:52:49;;;;;;;;;3.00;3.00;;;;;23.90;54.92;102151.19;4884616;29;45292;-84
2021/07/18 09:55:22;;;;;;;;;2.00;1.50;;;;;23.96;54.94;102157.97;4884483;29;45649;-84
2021/07/18 09:57:51;;;;;;;;;3.00;3.00;;;;;24.01;55.24;102153.16;4884228;29;46609;-84
2021/07/18 10:00:19;;;;;;;;;3.50;3.00;;;;;24.08;54.70;102152.72;4884581;29;45630;-84
2021/07/18 10:02:45;;;;;;;;;3.75;2.75;;;;;24.15;54.76;102149.50;4884631;29;45321;-84
2021/07/18 10:05:29;;;;;;;;;9.50;7.75;;;;;24.22;54.15;102151.78;4872771;29;46460;-84
2021/07/18 10:08:09;;;;;;;;;6.25;5.25;;;;;24.25;52.92;102149.75;4879794;29;48090;-84
2021/07/18 10:10:36;;;;;;;;;3.00;2.75;;;;;24.31;53.48;102147.63;4881090;29;46022;-85
2021/07/18 10:13:05;;;;;;;;;6.00;4.50;;;;;24.36;52.61;102158.91;4884704;29;45403;-84
2021/07/18 10:15:32;;;;;;;;;2.50;2.00;;;;;24.44;51.62;102155.69;4884485;29;45399;-84
2021/07/18 10:17:57;;;;;;;;;3.25;2.00;;;;;24.50;52.65;102150.72;4898952;29;47275;-83
2021/07/18 10:20:24;;;;;;;;;3.00;2.50;;;;;24.56;52.41;102151.25;4898793;29;45205;-83
2021/07/18 10:22:53;;;;;;;;;3.00;3.00;;;;;24.60;49.16;102152.75;4898342;29;45326;-83
2021/07/18 10:25:19;;;;;;;;;5.50;3.00;;;;;24.70;50.50;102142.22;4892186;29;45715;-84
2021/07/18 10:27:46;;;;;;;;;3.50;3.50;;;;;24.76;51.31;102147.16;4899000;28;47773;-83
2021/07/18 10:30:13;;;;;;;;;3.00;3.00;;;;;24.78;50.44;102145.22;4898806;29;45272;-82
2021/07/18 10:32:40;;;;;;;;;3.25;3.00;;;;;24.86;50.92;102144.66;4883902;29;45205;-84
2021/07/18 10:35:08;;;;;;;;;3.50;3.50;;;;;24.93;49.27;102140.56;4867652;29;46366;-84
2021/07/18 10:37:42;;;;;;;;;3.00;2.75;;;;;25.03;49.94;102140.78;4883963;29;45456;-84
2021/07/18 10:40:13;;;;;;;;;3.00;3.00;;;;;25.10;49.13;102132.25;4883895;29;45255;-82
2021/07/18 10:42:39;;;;;;;;;3.25;3.00;;;;;25.07;49.28;102136.03;4883600;29;45244;-84
2021/07/18 10:45:29;;;;;;;;;3.50;3.50;;;;;25.08;49.29;102137.75;4884114;29;45440;-84
2021/07/18 10:48:05;;;;;;;;;3.50;2.25;;;;;25.08;48.78;102132.38;4884212;29;45753;-83
2021/07/18 10:50:43;;;;;;;;;2.75;2.75;;;;;25.14;48.52;102133.72;4883891;29;45283;-83
2021/07/18 10:53:15;;;;;;;;;7.25;5.25;;;;;25.21;49.37;102134.16;4895064;29;45372;-83
2021/07/18 10:55:40;;;;;;;;;4.50;4.50;;;;;25.24;48.42;102117.75;4894926;28;45987;-82
2021/07/18 10:58:05;;;;;;;;;4.50;4.00;;;;;25.29;47.92;102126.34;4901143;29;48218;-84
2021/07/18 11:00:32;;;;;;;;;4.00;4.00;;;;;25.34;49.45;102121.50;4900888;28;45281;-84
2021/07/18 11:03:11;;;;;;;;;5.00;5.00;;;;;25.27;49.07;102123.78;4890959;29;45329;-84
2021/07/18 11:05:42;;;;;;;;;5.00;5.00;;;;;25.19;48.71;102120.81;4887180;29;45336;-84
2021/07/18 11:08:08;;;;;;;;;3.25;3.25;;;;;25.17;48.86;102115.53;4886854;29;45381;-83
2021/07/18 11:10:53;;;;;;;;;3.50;3.50;;;;;25.21;47.97;102118.00;4886502;29;45711;-84
2021/07/18 11:13:20;;;;;;;;;5.00;3.50;;;;;25.25;48.83;102108.72;4886841;29;45264;-84
2021/07/18 11:15:46;;;;;;;;;3.75;3.25;;;;;25.32;48.71;102110.00;4887331;29;45258;-84
2021/07/18 11:18:33;;;;;;;;;4.50;4.00;;;;;25.38;49.11;102097.91;4885548;29;47125;-84
2021/07/18 11:20:59;;;;;;;;;4.75;4.25;;;;;25.42;48.18;102110.16;4886406;29;45479;-83
2021/07/18 11:23:42;;;;;;;;;5.25;5.25;;;;;25.47;49.12;102107.13;4886893;29;45357;-83
2021/07/18 11:26:13;;;;;;;;;6.75;5.00;;;;;25.51;48.17;102098.69;4885278;29;46961;-84
2021/07/18 11:28:56;;;;;;;;;7.00;5.00;;;;;25.60;48.10;102113.28;4886877;29;46492;-84
2021/07/18 11:31:25;;;;;;;;;11.25;9.25;;;;;25.67;47.77;102102.03;4901088;29;46036;-85
2021/07/18 11:33:55;;;;;;;;;11.50;10.25;;;;;25.68;47.23;102093.84;4886510;29;45438;-85
2021/07/18 11:36:32;;;;;;;;;6.75;6.75;;;;;25.72;48.61;102105.25;4885322;29;46332;-85
2021/07/18 11:38:59;;;;;;;;;6.00;6.00;;;;;25.76;48.20;102098.66;4886400;29;46552;-85
2021/07/18 11:41:28;;;;;;;;;6.50;6.25;;;;;25.81;46.47;102096.47;4885478;29;45305;-84
2021/07/18 11:43:55;;;;;;;;;7.00;7.00;;;;;25.87;47.93;102087.09;4886532;29;45346;-82
2021/07/18 11:46:23;;;;;;;;;7.75;7.75;;;;;25.95;47.94;102089.19;4886479;29;45350;-85
2021/07/18 11:48:53;;;;;;;;;7.75;6.00;;;;;26.00;47.00;102078.03;4886577;29;46419;-85
2021/07/18 11:51:20;;;;;;;;;7.25;5.00;;;;;26.06;47.73;102078.41;4885997;29;45293;-86
2021/07/18 11:53:50;;;;;;;;;6.00;6.00;;;;;26.14;46.90;102082.34;4875421;29;45292;-83
2021/07/18 11:56:23;;;;;;;;;5.50;5.25;;;;;26.16;47.24;102077.69;4886376;29;45431;-86
2021/07/18 11:58:53;;;;;;;;;2.75;2.75;;;;;26.21;46.92;102077.31;4900639;29;48525;-85
2021/07/18 12:01:23;;;;;;;;;8.25;6.25;;;;;26.26;46.53;102075.09;4883964;29;45483;-87
2021/07/18 12:03:49;;;;;;;;;8.50;8.00;;;;;26.30;46.96;102074.75;4916555;28;45265;-85
2021/07/18 12:06:30;;;;;;;;;8.00;8.00;;;;;26.34;47.45;102071.81;4885040;29;46091;-86
2021/07/18 12:08:57;;;;;;;;;5.50;5.50;;;;;26.41;46.82;102070.34;4883566;29;47259;-85
2021/07/18 12:11:25;;;;;;;;;7.00;6.00;;;;;26.44;47.15;102063.88;4915244;28;45517;-87
2021/07/18 12:13:53;;;;;;;;;6.00;6.00;;;;;26.39;47.27;102059.69;4874072;29;45251;-85
2021/07/18 12:16:19;;;;;;;;;12.00;11.50;;;;;26.34;47.15;102059.19;4886018;29;45409;-85
2021/07/18 12:18:52;;;;;;;;;6.50;6.50;;;;;26.39;46.24;102058.81;4885801;29;46308;-85
2021/07/18 12:21:21;;;;;;;;;9.00;7.00;;;;;26.44;46.92;102056.66;4915395;28;45561;-84
2021/07/18 12:24:15;;;;;;;;;7.00;7.00;;;;;26.43;46.24;102057.63;4885351;29;45443;-84
2021/07/18 12:26:47;;;;;;;;;6.25;6.25;;;;;26.45;45.08;102046.69;4867695;29;46128;-84
2021/07/18 12:29:14;;;;;;;;;7.00;7.00;;;;;26.52;44.54;102048.78;4885496;29;46450;-84
2021/07/18 12:31:42;;;;;;;;;8.25;6.25;;;;;26.57;45.56;102039.47;4885636;29;45328;-84
2021/07/18 12:34:09;;;;;;;;;10.25;7.50;;;;;26.65;46.11;102034.28;4885999;29;45245;-85
2021/07/18 12:37:13;;;;;;;;;7.25;7.25;;;;;26.69;44.85;102045.69;4884599;29;45370;-85
2021/07/18 12:39:45;;;;;;;;;9.50;7.00;;;;;26.76;44.44;102028.03;4884571;29;46377;-84
2021/07/18 12:42:18;;;;;;;;;13.00;8.00;;;;;26.83;43.68;102033.75;4885231;29;45294;-85
2021/07/18 12:44:48;;;;;;;;;6.25;6.25;;;;;26.89;43.31;102038.63;4885932;29;45321;-85
2021/07/18 12:47:27;;;;;;;;;7.75;7.50;;;;;26.92;44.26;102024.91;4884096;29;46303;-85
2021/07/18 12:50:08;;;;;;;;;7.50;6.75;;;;;26.83;43.77;102033.75;4885612;29;45369;-84
2021/07/18 12:52:55;;;;;;;;;7.00;7.00;;;;;26.81;43.56;102035.72;4885064;29;45174;-85
2021/07/18 12:55:25;;;;;;;;;4.50;4.50;;;;;26.81;43.54;102033.91;4885501;29;45245;-85
2021/07/18 12:57:51;;;;;;;;;7.00;6.25;;;;;26.89;44.26;102033.25;4885078;29;45483;-85
2021/07/18 13:00:22;;;;;;;;;6.75;6.50;;;;;26.99;43.22;102035.19;4885078;29;45367;-84
2021/07/18 13:02:48;;;;;;;;;5.75;5.75;;;;;27.05;43.57;102026.56;4884129;29;45566;-86
2021/07/18 13:05:13;;;;;;;;;6.75;4.25;;;;;27.09;42.45;102025.31;4899983;29;45381;-84
2021/07/18 13:07:39;;;;;;;;;6.00;6.00;;;;;27.15;42.85;102021.28;4908660;28;46545;-85
2021/07/18 13:10:12;;;;;;;;;8.75;7.75;;;;;27.18;42.94;102023.72;4876441;29;45581;-84
2021/07/18 13:12:39;;;;;;;;;6.00;6.00;;;;;27.14;43.26;102012.34;4884848;29;45422;-84
2021/07/18 13:15:16;;;;;;;;;6.25;5.25;;;;;27.15;43.27;102019.44;4885169;29;45300;-85
2021/07/18 13:17:59;;;;;;;;;5.50;5.00;;;;;27.18;43.00;102016.50;4882179;29;45540;-84
2021/07/18 13:20:27;;;;;;;;;5.00;5.00;;;;;27.21;44.45;102010.00;4883986;29;45535;-84
2021/07/18 13:22:53;;;;;;;;;5.25;5.25;;;;;27.22;43.98;102005.44;4883399;29;45558;-84
2021/07/18 13:25:27;;;;;;;;;8.00;7.25;;;;;27.19;43.51;102002.00;4885437;29;45262;-84
2021/07/18 13:27:55;;;;;;;;;6.00;5.25;;;;;27.22;42.35;102005.44;4884380;29;45479;-87
2021/07/18 13:30:23;;;;;;;;;4.00;4.00;;;;;27.29;43.19;102006.63;4885156;29;45386;-86
2021/07/18 13:32:49;;;;;;;;;6.75;5.25;;;;;27.32;42.83;101990.16;4884273;29;45252;-86
2021/07/18 13:35:17;;;;;;;;;4.75;4.00;;;;;27.41;42.60;101992.06;4885135;29;45446;-86
2021/07/18 13:37:46;;;;;;;;;6.00;5.50;;;;;27.54;43.07;101996.41;4884559;29;45478;-86
2021/07/18 13:40:27;;;;;;;;;6.50;6.00;;;;;27.67;42.70;101992.63;4884311;29;46085;-77
2021/07/18 13:43:18;;;;;;;;;8.50;6.75;;;;;27.73;41.80;101994.81;4884836;29;45489;-77
2021/07/18 13:45:45;;;;;;;;;6.50;5.75;;;;;27.74;42.26;101993.81;4884746;29;45324;-76
2021/07/18 13:48:20;;;;;;;;;5.50;5.50;;;;;27.78;41.90;102003.34;4883634;29;46102;-76
2021/07/18 13:50:46;;;;;;;;;5.00;5.00;;;;;27.78;41.52;101995.25;4913802;28;47678;-75
2021/07/18 13:53:12;;;;;;;;;6.25;5.25;;;;;27.78;42.35;101997.94;4883844;29;45232;-75
2021/07/18 13:55:41;;;;;;;;;7.25;6.00;;;;;27.73;41.58;101981.31;4898870;29;45269;-75
2021/07/18 13:58:07;;;;;;;;;12.75;6.00;;;;;27.71;42.11;101988.66;4883462;29;47219;-75
2021/07/18 14:00:32;;;;;;;;;6.00;6.00;;;;;27.71;41.63;101978.72;4882623;29;46358;-77
2021/07/18 14:02:58;;;;;;;;;5.25;5.25;;;;;27.74;42.39;101977.59;4880648;29;45340;-76
2021/07/18 14:05:23;;;;;;;;;6.00;6.00;;;;;27.76;42.45;101981.03;4882617;29;45375;-77
2021/07/18 14:07:49;;;;;;;;;4.75;4.75;;;;;27.72;43.01;101966.09;4884271;29;45352;-76
2021/07/18 14:10:15;;;;;;;;;5.50;5.50;;;;;27.67;43.04;101966.50;4882010;29;45614;-77
2021/07/18 14:12:45;;;;;;;;;6.25;6.25;;;;;27.72;42.98;101974.19;4886748;29;45454;-77
2021/07/18 14:15:16;;;;;;;;;5.50;4.00;;;;;27.75;42.18;101961.28;4876975;29;45521;-76
2021/07/18 14:17:43;;;;;;;;;5.75;5.75;;;;;27.80;42.43;101977.13;4884013;29;45700;-76
2021/07/18 14:20:23;;;;;;;;;7.00;6.50;;;;;27.86;42.20;101975.69;4886062;29;46117;-76
2021/07/18 14:22:51;;;;;;;;;5.00;4.50;;;;;27.85;41.23;101963.19;4892024;29;45471;-76
2021/07/18 14:25:17;;;;;;;;;7.00;6.00;;;;;27.90;42.62;101971.75;4884168;29;45247;-75
2021/07/18 14:27:44;;;;;;;;;5.25;4.00;;;;;27.94;42.50;101966.91;4883116;29;46617;-76
2021/07/18 14:30:13;;;;;;;;;7.25;7.25;;;;;27.97;41.94;101966.66;4883669;29;45379;-76
2021/07/18 14:32:39;;;;;;;;;2.50;2.00;;;;;28.01;41.78;101959.13;4881893;29;45394;-77
2021/07/18 14:35:05;;;;;;;;;5.75;5.25;;;;;28.08;42.30;101962.97;4880308;29;45390;-75
2021/07/18 14:37:32;;;;;;;;;6.25;6.25;;;;;28.11;42.15;101960.00;4883143;29;45319;-77
2021/07/18 14:39:58;;;;;;;;;5.00;4.50;;;;;28.15;41.96;101955.19;4865669;29;45784;-76
2021/07/18 14:42:24;;;;;;;;;6.50;5.00;;;;;28.19;42.53;101960.19;4882371;29;45440;-76
2021/07/18 14:44:49;;;;;;;;;4.25;4.00;;;;;28.19;42.45;101975.53;4914678;28;45249;-76
2021/07/18 14:47:15;;;;;;;;;7.00;6.00;;;;;28.17;42.31;101953.19;4882204;29;45204;-76
2021/07/18 14:49:40;;;;;;;;;7.00;6.00;;;;;28.17;42.20;101955.91;4883563;29;45251;-77
2021/07/18 14:52:06;;;;;;;;;7.50;6.00;;;;;28.18;42.27;101963.00;4883184;29;45410;-76
2021/07/18 14:54:31;;;;;;;;;7.00;7.00;;;;;28.14;42.36;101956.19;4883481;29;45453;-76
2021/07/18 14:56:57;;;;;;;;;5.75;5.75;;;;;28.11;42.45;101956.44;4883768;29;45430;-76
2021/07/18 14:59:23;;;;;;;;;7.00;5.00;;;;;28.07;42.57;101956.75;4884018;29;46350;-76
2021/07/18 15:01:49;;;;;;;;;8.25;6.75;;;;;28.05;42.35;101952.47;4897457;29;45472;-75
2021/07/18 15:04:14;;;;;;;;;6.25;5.00;;;;;28.09;41.95;101943.09;4883775;29;45585;-76
2021/07/18 15:06:39;;;;;;;;;8.50;6.75;;;;;28.14;42.49;101939.97;4883763;29;45371;-76
2021/07/18 15:09:05;;;;;;;;;7.75;7.75;;;;;28.13;41.88;101943.66;4883071;29;46288;-76
2021/07/18 15:11:30;;;;;;;;;7.50;6.75;;;;;28.14;41.83;101938.13;4883067;29;45239;-77
2021/07/18 15:13:57;;;;;;;;;7.00;7.00;;;;;28.10;42.22;101931.28;4883281;29;45499;-77
2021/07/18 15:16:24;;;;;;;;;4.75;4.75;;;;;28.06;41.85;101944.22;4882725;29;45433;-76
2021/07/18 15:18:50;;;;;;;;;9.00;8.00;;;;;28.07;42.47;101937.81;4883566;29;45255;-75
2021/07/18 15:21:15;;;;;;;;;5.25;5.00;;;;;28.05;42.44;101933.56;4883868;29;45271;-76
2021/07/18 15:23:40;;;;;;;;;6.25;6.25;;;;;28.06;42.29;101932.53;4882987;29;45520;-76
2021/07/18 15:26:06;;;;;;;;;7.50;5.75;;;;;28.09;41.58;101941.25;4882706;29;45181;-76
2021/07/18 15:28:31;;;;;;;;;5.75;5.75;;;;;28.09;41.11;101938.53;4883518;29;45307;-75